createdAt,value
2022-08-20T00:01:17.090Z,2.10
2022-08-20T00:04:03.473Z,2.53
2022-08-20T00:06:49.100Z,2.08
2022-08-20T00:09:36.547Z,2.53
2022-08-20T00:12:22.760Z,1.70
2022-08-20T00:15:08.976Z,2.10
2022-08-20T00:17:55.596Z,1.85
2022-08-20T00:20:45.616Z,2.15
2022-08-20T00:23:31.575Z,2.08
2022-08-20T00:26:18.526Z,1.70
2022-08-20T00:29:04.946Z,2.10
2022-08-20T00:31:51.334Z,1.95
2022-08-20T00:34:37.300Z,1.83
2022-08-20T00:37:23.500Z,2.30
2022-08-20T00:40:22.551Z,2.58
2022-08-20T00:43:39.925Z,2.00
2022-08-20T00:46:31.213Z,1.80
2022-08-20T00:49:31.036Z,1.92
2022-08-20T00:52:22.090Z,2.00
2022-08-20T00:55:09.407Z,1.73
2022-08-20T00:58:01.732Z,1.98
2022-08-20T01:00:49.752Z,1.70
2022-08-20T01:03:35.709Z,1.90
2022-08-20T01:06:21.196Z,1.75
2022-08-20T01:09:07.647Z,1.92
2022-08-20T01:11:54.933Z,1.73
2022-08-20T01:14:45.769Z,1.65
2022-08-20T01:17:36.279Z,1.50
2022-08-20T01:20:28.523Z,1.33
2022-08-20T01:23:48.894Z,1.25
2022-08-20T01:26:39.441Z,1.45
2022-08-20T01:29:34.249Z,1.40
2022-08-20T01:32:20.585Z,1.48
2022-08-20T01:35:07.238Z,1.60
2022-08-20T01:37:53.334Z,1.30
2022-08-20T01:40:57.558Z,1.58
2022-08-20T01:43:45.293Z,1.50
2022-08-20T01:46:41.777Z,1.40
2022-08-20T01:49:34.811Z,1.98
2022-08-20T01:52:47.113Z,1.30
2022-08-20T01:55:33.297Z,1.90
2022-08-20T01:58:19.126Z,1.30
2022-08-20T02:01:05.125Z,1.33
2022-08-20T02:03:51.248Z,1.40
2022-08-20T02:06:41.782Z,1.38
2022-08-20T02:09:43.356Z,1.42
2022-08-20T02:12:29.580Z,1.60
2022-08-20T02:15:16.045Z,1.25
2022-08-20T02:18:08.019Z,1.40
2022-08-20T02:20:54.056Z,1.48
2022-08-20T02:23:40.112Z,1.58
2022-08-20T02:26:27.012Z,1.52
2022-08-20T02:29:14.668Z,1.60
2022-08-20T02:32:32.538Z,1.35
2022-08-20T02:35:08.740Z,1.38
2022-08-20T02:37:55.389Z,1.30
2022-08-20T02:40:41.765Z,1.30
2022-08-20T02:43:27.750Z,1.23
2022-08-20T02:46:15.433Z,1.70
2022-08-20T02:49:01.151Z,1.50
2022-08-20T02:51:47.532Z,1.58
2022-08-20T02:54:33.359Z,1.20
2022-08-20T02:57:20.764Z,1.60
2022-08-20T03:00:14.058Z,1.60
2022-08-20T03:05:46.153Z,1.40
2022-08-20T03:08:31.761Z,1.42
2022-08-20T03:11:18.173Z,1.42
2022-08-20T03:14:03.812Z,1.52
2022-08-20T03:16:49.869Z,1.20
2022-08-20T03:19:35.831Z,1.48
2022-08-20T03:22:21.925Z,1.55
2022-08-20T03:25:08.044Z,1.50
2022-08-20T03:27:54.965Z,1.65
2022-08-20T03:30:41.645Z,1.20
2022-08-20T03:33:28.192Z,1.40
2022-08-20T03:36:14.410Z,1.42
2022-08-20T03:39:11.637Z,1.13
2022-08-20T03:41:57.410Z,1.63
2022-08-20T03:44:43.318Z,1.55
2022-08-20T03:47:29.593Z,1.33
2022-08-20T03:50:22.652Z,1.70
2022-08-20T03:53:10.632Z,1.30
2022-08-20T03:56:03.237Z,1.30
2022-08-20T03:58:48.857Z,1.45
2022-08-20T04:01:45.417Z,1.10
2022-08-20T04:04:32.216Z,1.05
2022-08-20T04:07:25.949Z,1.85
2022-08-20T04:12:58.681Z,1.20
2022-08-20T04:15:45.739Z,1.30
2022-08-20T04:18:32.530Z,1.27
2022-08-20T04:21:18.459Z,1.00
2022-08-20T04:24:05.448Z,1.10
2022-08-20T04:26:51.475Z,1.38
2022-08-20T04:29:37.753Z,1.05
2022-08-20T04:32:23.960Z,1.45
2022-08-20T04:35:14.580Z,1.05
2022-08-20T04:38:02.492Z,1.40
2022-08-20T04:40:55.965Z,1.42
2022-08-20T04:43:43.401Z,1.27
2022-08-20T04:46:31.720Z,1.52
2022-08-20T04:49:17.824Z,0.90
2022-08-20T04:52:04.224Z,1.30
2022-08-20T04:54:50.272Z,1.27
2022-08-20T04:57:38.313Z,1.08
2022-08-20T05:00:24.374Z,1.33
2022-08-20T05:03:10.223Z,0.90
2022-08-20T05:05:56.927Z,1.10
2022-08-20T05:08:44.425Z,1.20
2022-08-20T05:11:36.049Z,1.75
2022-08-20T05:14:22.340Z,0.80
2022-08-20T05:17:08.511Z,1.00
2022-08-20T05:19:54.828Z,0.82
2022-08-20T05:22:40.705Z,0.95
2022-08-20T05:25:30.662Z,0.95
2022-08-20T05:28:22.932Z,1.00
2022-08-20T05:31:09.592Z,1.13
2022-08-20T05:33:56.856Z,1.30
2022-08-20T05:36:49.664Z,0.90
2022-08-20T05:39:37.509Z,1.20
2022-08-20T05:42:23.833Z,1.10
2022-08-20T05:45:11.275Z,1.10
2022-08-20T05:47:57.311Z,1.00
2022-08-20T05:50:45.399Z,1.00
2022-08-20T05:53:31.642Z,1.23
2022-08-20T05:56:17.037Z,1.20
2022-08-20T05:59:05.040Z,1.08
2022-08-20T06:01:51.148Z,1.02
2022-08-20T06:04:37.380Z,1.25
2022-08-20T06:07:23.386Z,1.08
2022-08-20T06:10:10.815Z,1.10
2022-08-20T06:12:56.738Z,1.20
2022-08-20T06:15:42.808Z,1.08
2022-08-20T06:18:28.995Z,0.77
2022-08-20T06:21:15.615Z,1.08
2022-08-20T06:24:01.862Z,1.45
2022-08-20T06:26:47.954Z,1.33
2022-08-20T06:29:34.017Z,1.15
2022-08-20T06:32:28.834Z,1.23
2022-08-20T06:35:20.185Z,1.10
2022-08-20T06:38:06.367Z,3.28
2022-08-20T06:40:52.323Z,4.47
2022-08-20T06:43:38.323Z,1.70
2022-08-20T06:46:24.463Z,1.48
2022-08-20T06:49:10.630Z,1.80
2022-08-20T06:51:57.026Z,1.50
2022-08-20T06:54:45.688Z,1.20
2022-08-20T06:57:31.289Z,1.50
2022-08-20T07:00:20.041Z,1.55
2022-08-20T07:03:05.969Z,1.30
2022-08-20T07:05:51.720Z,1.48
2022-08-20T07:08:37.570Z,1.20
2022-08-20T07:11:28.697Z,1.40
2022-08-20T07:14:16.265Z,1.30
2022-08-20T07:17:06.756Z,1.20
2022-08-20T07:19:58.779Z,1.00
2022-08-20T07:22:44.422Z,1.20
2022-08-20T07:25:31.858Z,1.05
2022-08-20T07:28:21.144Z,0.90
2022-08-20T07:31:25.205Z,0.90
2022-08-20T07:34:13.780Z,0.77
2022-08-20T07:37:00.639Z,0.90
2022-08-20T07:39:50.016Z,0.90
2022-08-20T07:42:36.721Z,0.82
2022-08-20T07:45:23.725Z,0.82
2022-08-20T07:48:12.365Z,0.80
2022-08-20T07:51:17.836Z,1.10
2022-08-20T07:54:04.384Z,1.00
2022-08-20T07:56:50.341Z,1.13
2022-08-20T07:59:36.593Z,1.00
2022-08-20T08:02:22.833Z,0.90
2022-08-20T08:05:09.250Z,1.20
2022-08-20T08:07:55.858Z,1.00
2022-08-20T08:10:42.362Z,0.70
2022-08-20T08:13:32.773Z,1.10
2022-08-20T08:16:20.116Z,1.10
2022-08-20T08:19:08.959Z,0.80
2022-08-20T08:21:57.398Z,0.90
2022-08-20T08:24:56.836Z,1.10
2022-08-20T08:27:45.737Z,1.10
2022-08-20T08:30:31.850Z,1.10
2022-08-20T08:33:30.951Z,0.82
2022-08-20T08:36:16.860Z,1.02
2022-08-20T08:39:03.073Z,1.02
2022-08-20T08:41:51.594Z,1.00
2022-08-20T08:44:41.372Z,0.88
2022-08-20T08:47:31.586Z,1.00
2022-08-20T08:50:38.522Z,0.90
2022-08-20T08:53:43.423Z,0.82
2022-08-20T08:56:30.434Z,0.77
2022-08-20T08:59:16.075Z,1.00
2022-08-20T09:02:02.861Z,0.88
2022-08-20T09:04:51.480Z,0.80
2022-08-20T09:07:37.888Z,1.17
2022-08-20T09:10:24.185Z,0.90
2022-08-20T09:13:10.304Z,1.20
2022-08-20T09:15:56.118Z,0.82
2022-08-20T09:18:42.581Z,0.95
2022-08-20T09:21:28.857Z,0.77
2022-08-20T09:24:14.919Z,0.90
2022-08-20T09:27:00.453Z,0.90
2022-08-20T09:29:46.229Z,1.10
2022-08-20T09:32:35.086Z,0.95
2022-08-20T09:35:21.352Z,1.15
2022-08-20T09:38:07.287Z,0.90
2022-08-20T09:40:53.340Z,0.70
2022-08-20T09:43:39.451Z,1.15
2022-08-20T09:46:27.434Z,1.20
2022-08-20T09:49:13.863Z,1.00
2022-08-20T09:52:01.328Z,1.00
2022-08-20T09:54:46.918Z,1.20
2022-08-20T09:57:32.761Z,0.93
2022-08-20T10:00:19.324Z,1.10
2022-08-20T10:03:05.177Z,1.10
2022-08-20T10:05:51.522Z,1.13
2022-08-20T10:08:38.180Z,1.00
2022-08-20T10:11:24.321Z,0.90
2022-08-20T10:14:11.174Z,1.13
2022-08-20T10:17:00.684Z,1.05
2022-08-20T10:19:46.273Z,1.25
2022-08-20T10:22:32.844Z,1.00
2022-08-20T10:25:18.925Z,1.25
2022-08-20T10:28:05.709Z,1.00
2022-08-20T10:30:51.675Z,1.40
2022-08-20T10:33:37.392Z,1.10
2022-08-20T10:36:23.745Z,1.20
2022-08-20T10:39:09.897Z,1.50
2022-08-20T10:41:55.585Z,1.08
2022-08-20T10:44:41.544Z,1.20
2022-08-20T10:47:30.396Z,1.30
2022-08-20T10:50:17.076Z,1.40
2022-08-20T10:53:02.933Z,1.20
2022-08-20T10:55:48.933Z,1.25
2022-08-20T10:58:39.612Z,1.00
2022-08-20T11:01:31.149Z,1.10
2022-08-20T11:04:18.706Z,1.10
2022-08-20T11:07:18.405Z,1.10
2022-08-20T11:10:09.332Z,0.98
2022-08-20T11:12:59.796Z,1.00
2022-08-20T11:15:45.919Z,1.15
2022-08-20T11:18:32.937Z,1.05
2022-08-20T11:21:18.849Z,1.30
2022-08-20T11:24:05.024Z,1.17
2022-08-20T11:26:53.335Z,1.00
2022-08-20T11:29:39.313Z,1.13
2022-08-20T11:32:25.553Z,1.00
2022-08-20T11:35:40.639Z,0.88
2022-08-20T11:38:19.141Z,1.30
2022-08-20T11:41:05.060Z,1.23
2022-08-20T11:44:10.415Z,1.10
2022-08-20T11:46:59.880Z,1.08
2022-08-20T11:49:45.696Z,1.02
2022-08-20T11:52:31.629Z,1.00
2022-08-20T11:55:17.840Z,1.00
2022-08-20T11:58:03.854Z,1.17
2022-08-20T12:00:50.160Z,1.00
2022-08-20T12:03:36.634Z,0.85
2022-08-20T12:06:22.673Z,1.40
2022-08-20T12:09:08.868Z,1.13
2022-08-20T12:11:54.874Z,1.00
2022-08-20T12:14:40.717Z,0.90
2022-08-20T12:17:29.872Z,0.90
2022-08-20T12:20:16.596Z,1.10
2022-08-20T12:23:02.393Z,0.80
2022-08-20T12:25:48.654Z,0.90
2022-08-20T12:28:34.137Z,1.08
2022-08-20T12:31:19.987Z,1.10
2022-08-20T12:34:05.605Z,1.02
2022-08-20T12:37:00.182Z,0.90
2022-08-20T12:39:49.373Z,1.00
2022-08-20T12:42:35.196Z,0.90
2022-08-20T12:45:21.093Z,0.93
2022-08-20T12:48:12.605Z,0.90
2022-08-20T12:50:58.036Z,0.90
2022-08-20T12:53:43.612Z,1.15
2022-08-20T12:56:29.709Z,1.13
2022-08-20T12:59:15.594Z,1.00
2022-08-20T13:02:13.851Z,0.90
2022-08-20T13:05:05.490Z,1.00
2022-08-20T13:07:52.671Z,1.17
2022-08-20T13:10:45.667Z,0.80
2022-08-20T13:13:31.663Z,0.90
2022-08-20T13:16:17.917Z,0.88
2022-08-20T13:19:03.975Z,1.00
2022-08-20T13:21:55.022Z,1.00
2022-08-20T13:24:42.260Z,1.10
2022-08-20T13:27:28.291Z,0.90
2022-08-20T13:30:17.957Z,0.90
2022-08-20T13:33:03.916Z,1.10
2022-08-20T13:35:50.258Z,1.00
2022-08-20T13:38:36.286Z,1.00
2022-08-20T13:41:22.036Z,0.95
2022-08-20T13:44:07.917Z,1.00
2022-08-20T13:46:54.115Z,1.05
2022-08-20T13:49:40.112Z,1.10
2022-08-20T13:52:26.813Z,0.90
2022-08-20T13:55:16.057Z,0.80
2022-08-20T13:58:06.343Z,1.10
2022-08-20T14:00:52.495Z,1.00
2022-08-20T14:03:38.530Z,1.13
2022-08-20T14:06:24.011Z,0.93
2022-08-20T14:09:10.304Z,1.20
2022-08-20T14:11:56.357Z,1.30
2022-08-20T14:14:42.357Z,1.27
2022-08-20T14:17:36.602Z,1.00
2022-08-20T14:20:29.373Z,1.10
2022-08-20T14:23:17.889Z,1.05
2022-08-20T14:26:03.982Z,1.10
2022-08-20T14:28:50.231Z,1.00
2022-08-20T14:31:36.276Z,1.35
2022-08-20T14:34:21.825Z,1.23
2022-08-20T14:37:18.421Z,0.90
2022-08-20T14:40:07.941Z,1.08
2022-08-20T14:42:55.672Z,1.00
2022-08-20T14:45:41.546Z,1.17
2022-08-20T14:48:28.248Z,1.10
2022-08-20T14:51:14.183Z,1.05
2022-08-20T14:54:00.932Z,1.10
2022-08-20T14:56:46.920Z,0.98
2022-08-20T14:59:33.016Z,1.17
2022-08-20T15:02:19.004Z,0.98
2022-08-20T15:05:07.032Z,1.20
2022-08-20T15:07:53.734Z,1.13
2022-08-20T15:10:40.408Z,0.93
2022-08-20T15:13:26.420Z,1.00
2022-08-20T15:16:12.678Z,1.13
2022-08-20T15:18:59.947Z,1.00
2022-08-20T15:21:45.897Z,1.25
2022-08-20T15:24:31.605Z,1.20
2022-08-20T15:27:22.756Z,1.20
2022-08-20T15:30:14.569Z,1.10
2022-08-20T15:33:01.079Z,1.20
2022-08-20T15:35:47.329Z,1.00
2022-08-20T15:38:33.407Z,1.08
2022-08-20T15:41:19.361Z,1.08
2022-08-20T15:44:05.681Z,1.20
2022-08-20T15:46:51.474Z,1.08
2022-08-20T15:49:37.968Z,1.00
2022-08-20T15:52:26.257Z,1.10
2022-08-20T15:55:15.662Z,1.30
2022-08-20T15:58:33.740Z,1.02
2022-08-20T16:01:31.617Z,1.02
2022-08-20T16:04:20.216Z,1.02
2022-08-20T16:07:14.536Z,1.00
2022-08-20T16:10:13.941Z,1.05
2022-08-20T16:13:06.207Z,1.08
2022-08-20T16:15:53.413Z,1.02
2022-08-20T16:18:40.845Z,1.00
2022-08-20T16:21:39.385Z,1.20
2022-08-20T16:24:25.643Z,1.00
2022-08-20T16:27:45.485Z,1.00
2022-08-20T16:30:47.891Z,1.00
2022-08-20T16:34:04.281Z,1.20
2022-08-20T16:37:26.233Z,0.90
2022-08-20T16:40:30.604Z,1.30
2022-08-20T16:43:32.359Z,1.08
2022-08-20T16:46:21.404Z,0.85
2022-08-20T16:49:13.714Z,1.00
2022-08-20T16:52:01.154Z,1.10
2022-08-20T16:54:46.817Z,1.10
2022-08-20T16:57:32.840Z,1.00
2022-08-20T17:00:21.766Z,1.10
2022-08-20T17:03:33.382Z,0.85
2022-08-20T17:06:46.843Z,0.88
2022-08-20T17:09:43.432Z,1.20
2022-08-20T17:12:29.640Z,1.10
2022-08-20T17:15:20.931Z,1.20
2022-08-20T17:18:39.548Z,1.10
2022-08-20T17:21:26.057Z,1.00
2022-08-20T17:24:19.588Z,0.93
2022-08-20T17:30:04.851Z,1.20
2022-08-20T17:33:03.518Z,0.93
2022-08-20T17:35:53.904Z,1.20
2022-08-20T17:38:51.682Z,1.00
2022-08-20T17:41:37.693Z,1.10
2022-08-20T17:44:33.462Z,1.10
2022-08-20T17:47:26.567Z,1.15
2022-08-20T17:50:15.150Z,1.10
2022-08-20T17:53:23.396Z,1.30
2022-08-20T17:56:28.133Z,1.40
2022-08-20T17:59:59.431Z,1.50
2022-08-20T18:02:33.968Z,1.65
2022-08-20T18:05:21.219Z,2.05
2022-08-20T18:08:35.268Z,2.20
2022-08-20T18:11:40.244Z,2.10
2022-08-20T18:14:38.238Z,2.22
2022-08-20T18:17:33.128Z,2.40
2022-08-20T18:20:22.013Z,2.90
2022-08-20T18:23:49.212Z,2.17
2022-08-20T18:26:57.921Z,2.00
2022-08-20T18:29:48.122Z,1.90
2022-08-20T18:32:38.910Z,2.05
2022-08-20T18:35:34.863Z,2.22
2022-08-20T18:38:23.535Z,1.77
2022-08-20T18:41:14.785Z,2.00
2022-08-20T18:44:09.067Z,1.75
2022-08-20T18:46:58.799Z,2.03
2022-08-20T18:49:44.960Z,1.83
2022-08-20T18:52:33.796Z,1.80
2022-08-20T18:55:39.329Z,1.70
2022-08-20T18:58:36.464Z,1.55
2022-08-20T19:01:22.147Z,1.80
2022-08-20T19:04:28.393Z,1.90
2022-08-20T19:07:16.233Z,2.38
2022-08-20T19:10:35.227Z,1.88
2022-08-20T19:13:38.985Z,1.80
2022-08-20T19:16:45.921Z,1.80
2022-08-20T19:19:33.248Z,1.85
2022-08-20T19:22:21.075Z,1.80
2022-08-20T19:25:07.652Z,2.10
2022-08-20T19:27:53.822Z,2.08
2022-08-20T19:30:41.592Z,2.28
2022-08-20T19:33:29.789Z,2.58
2022-08-20T19:36:28.077Z,2.10
2022-08-20T19:39:18.725Z,1.90
2022-08-20T19:42:15.521Z,2.08
2022-08-20T19:45:04.001Z,2.20
2022-08-20T19:48:11.404Z,2.10
2022-08-20T19:51:20.482Z,1.83
2022-08-20T19:54:06.759Z,1.75
2022-08-20T19:57:03.663Z,1.92
2022-08-20T19:59:57.107Z,2.15
2022-08-20T20:02:43.859Z,1.90
2022-08-20T20:05:29.785Z,1.65
2022-08-20T20:08:15.741Z,1.60
2022-08-20T20:11:02.017Z,2.25
2022-08-20T20:13:48.109Z,2.17
2022-08-20T20:16:35.267Z,2.70
2022-08-20T20:19:28.952Z,2.22
2022-08-20T20:22:28.603Z,2.20
2022-08-20T20:25:19.669Z,1.92
2022-08-20T20:28:17.716Z,2.13
2022-08-20T20:31:13.489Z,2.17
2022-08-20T20:34:14.091Z,2.22
2022-08-20T20:37:49.307Z,2.10
2022-08-20T20:40:47.468Z,2.03
2022-08-20T20:43:35.086Z,1.98
2022-08-20T20:46:23.670Z,1.90
2022-08-20T20:49:09.520Z,2.10
2022-08-20T20:52:22.196Z,1.90
2022-08-20T20:55:32.701Z,1.75
2022-08-20T20:58:19.090Z,1.80
2022-08-20T21:01:05.249Z,1.63
2022-08-20T21:03:50.949Z,2.08
2022-08-20T21:06:36.901Z,1.77
2022-08-20T21:09:24.390Z,2.17
2022-08-20T21:12:12.101Z,2.45
2022-08-20T21:14:58.210Z,2.60
2022-08-20T21:17:44.458Z,2.00
2022-08-20T21:20:31.595Z,2.10
2022-08-20T21:23:18.101Z,1.90
2022-08-20T21:26:04.909Z,2.05
2022-08-20T21:28:50.532Z,2.00
2022-08-20T21:31:43.813Z,1.83
2022-08-20T21:34:29.649Z,2.15
2022-08-20T21:37:16.721Z,1.90
2022-08-20T21:40:03.729Z,2.10
2022-08-20T21:42:49.401Z,1.85
2022-08-20T21:45:35.404Z,2.10
2022-08-20T21:48:21.204Z,2.13
2022-08-20T21:51:07.148Z,2.00
2022-08-20T21:53:53.407Z,1.90
2022-08-20T21:56:39.516Z,2.13
2022-08-20T21:59:25.437Z,2.15
2022-08-20T22:02:11.292Z,1.85
2022-08-20T22:04:56.847Z,1.98
2022-08-20T22:07:43.391Z,2.20
2022-08-20T22:10:29.444Z,2.30
2022-08-20T22:13:15.385Z,1.98
2022-08-20T22:16:03.955Z,1.48
2022-08-20T22:18:50.637Z,1.60
2022-08-20T22:21:36.920Z,1.58
2022-08-20T22:24:24.081Z,2.08
2022-08-20T22:27:09.823Z,1.80
2022-08-20T22:29:56.203Z,1.65
2022-08-20T22:33:00.815Z,2.17
2022-08-20T22:35:50.584Z,1.70
2022-08-20T22:38:36.232Z,1.75
2022-08-20T22:41:22.486Z,1.70
2022-08-20T22:44:08.571Z,1.63
2022-08-20T22:46:58.835Z,1.45
2022-08-20T22:49:44.618Z,1.90
2022-08-20T22:52:32.300Z,1.98
2022-08-20T22:55:18.582Z,1.48
2022-08-20T22:58:06.948Z,1.42
2022-08-20T23:00:55.471Z,1.92
2022-08-20T23:03:41.334Z,1.67
2022-08-20T23:06:29.618Z,1.67
2022-08-20T23:09:15.657Z,1.58
2022-08-20T23:12:08.181Z,1.55
2022-08-20T23:14:54.967Z,1.55
2022-08-20T23:17:41.303Z,1.25
2022-08-20T23:20:27.058Z,1.55
2022-08-20T23:23:13.860Z,1.70
2022-08-20T23:26:00.418Z,1.70
2022-08-20T23:28:46.441Z,1.50
2022-08-20T23:31:32.486Z,1.52
2022-08-20T23:34:18.144Z,1.85
2022-08-20T23:37:05.344Z,1.30
2022-08-20T23:39:51.149Z,1.60
2022-08-20T23:42:37.650Z,1.48
2022-08-20T23:45:23.497Z,1.45
2022-08-20T23:48:09.383Z,1.42
2022-08-20T23:50:55.405Z,1.50
2022-08-20T23:53:40.965Z,1.92
2022-08-20T23:56:26.884Z,1.60
2022-08-20T23:59:12.800Z,1.60
